Home > Products > Valid Products > TAF

000
FTUS43 KBIS 300937 AAC
TAFMOT
TAF AMD
KMOT 300937Z 3010/3106 29012KT P6SM VCTS SCT060CB BKN100
      TEMPO 3010/3012 -SHRA OVC060
     FM301200 25009KT P6SM BKN100
     FM301500 30011KT P6SM SCT080
     FM301700 31015G23KT P6SM SKC
     FM310100 28008KT P6SM SCT070=



000
FTUS43 KBIS 300937 AAC
TAFMOT
TAF AMD
KMOT 300937Z 3010/3106 29012KT P6SM VCTS SCT060CB BKN100
      TEMPO 3010/3012 -SHRA OVC060
     FM301200 25009KT P6SM BKN100
     FM301500 30011KT P6SM SCT080
     FM301700 31015G23KT P6SM SKC
     FM310100 28008KT P6SM SCT070=



000
FTUS43 KBIS 300902 AAB
TAFMOT
TAF AMD
KMOT 300902Z 3009/3106 29012KT P6SM VCTS SCT060CB BKN100
     FM301200 25009KT P6SM BKN100
     FM301500 30011KT P6SM SCT080
     FM301700 31015G23KT P6SM SKC
     FM310100 28008KT P6SM SCT070=



000
FTUS43 KBIS 300830 AAA
TAFMOT
TAF AMD
KMOT 300830Z 3008/3106 26007KT P6SM SCT060
     FM300900 24008KT P6SM VCTS SCT060CB BKN100
     FM301200 25009KT P6SM BKN100
     FM301500 30011KT P6SM SCT080
     FM301700 31015G23KT P6SM SKC
     FM310100 28008KT P6SM SCT070=



000
FTUS43 KBIS 300830 AAA
TAFMOT
TAF AMD
KMOT 300830Z 3008/3106 26007KT P6SM SCT060
     FM300900 24008KT P6SM VCTS SCT060CB BKN100
     FM301200 25009KT P6SM BKN100
     FM301500 30011KT P6SM SCT080
     FM301700 31015G23KT P6SM SKC
     FM310100 28008KT P6SM SCT070=



000
FTUS43 KBIS 300522
TAFBIS
TAF
KBIS 300522Z 3006/3106 27004KT P6SM SKC
     FM301600 28012KT P6SM FEW080
     FM302100 31014KT P6SM FEW080
     FM310100 33005KT P6SM SKC=



000
FTUS43 KBIS 300522
TAFMOT
TAF
KMOT 300522Z 3006/3106 26007KT P6SM SCT060
     FM300900 24008KT P6SM VCSH SCT060 BKN100
     FM301200 25009KT P6SM BKN100
     FM301500 30011KT P6SM SCT080
     FM301700 31015G23KT P6SM SKC
     FM310100 28008KT P6SM SCT070=



000
FTUS43 KBIS 300522
TAFISN
TAF
KISN 300522Z 3006/3106 26005KT P6SM BKN100
     FM301400 33012KT P6SM SKC
     FM302100 32012G22KT P6SM SKC
     FM310200 31005KT P6SM SKC=



000
FTUS43 KBIS 300522
TAFDIK
TAF
KDIK 300522Z 3006/3106 24006KT P6SM SKC
     FM301500 27012KT P6SM SKC
     FM301700 31015G25KT P6SM SKC
     FM310100 32006KT P6SM SKC=



000
FTUS43 KBIS 300522
TAFJMS
TAF
KJMS 300522Z 3006/3106 27006KT P6SM SKC
     FM301500 28012G17KT P6SM SKC
     FM301700 28015G25KT P6SM SCT080
     FM302200 31015G25KT P6SM SCT080
     FM310100 32007KT P6SM SKC=



000
FTUS43 KBIS 300522
TAFBIS
TAF
KBIS 300522Z 3006/3106 27004KT P6SM SKC
     FM301600 28012KT P6SM FEW080
     FM302100 31014KT P6SM FEW080
     FM310100 33005KT P6SM SKC=



000
FTUS43 KBIS 300522
TAFMOT
TAF
KMOT 300522Z 3006/3106 26007KT P6SM SCT060
     FM300900 24008KT P6SM VCSH SCT060 BKN100
     FM301200 25009KT P6SM BKN100
     FM301500 30011KT P6SM SCT080
     FM301700 31015G23KT P6SM SKC
     FM310100 28008KT P6SM SCT070=



000
FTUS43 KBIS 300522
TAFJMS
TAF
KJMS 300522Z 3006/3106 27006KT P6SM SKC
     FM301500 28012G17KT P6SM SKC
     FM301700 28015G25KT P6SM SCT080
     FM302200 31015G25KT P6SM SCT080
     FM310100 32007KT P6SM SKC=



000
FTUS43 KBIS 300522
TAFISN
TAF
KISN 300522Z 3006/3106 26005KT P6SM BKN100
     FM301400 33012KT P6SM SKC
     FM302100 32012G22KT P6SM SKC
     FM310200 31005KT P6SM SKC=



000
FTUS43 KBIS 300522
TAFDIK
TAF
KDIK 300522Z 3006/3106 24006KT P6SM SKC
     FM301500 27012KT P6SM SKC
     FM301700 31015G25KT P6SM SKC
     FM310100 32006KT P6SM SKC=



000
FTUS43 KBIS 300120 AAA
TAFDIK
TAF AMD
KDIK 300120Z 3001/3024 30007KT P6SM SKC
     FM300600 24006KT P6SM SKC
     FM301500 27011KT P6SM SKC=



000
FTUS43 KBIS 300120 AAA
TAFMOT
TAF AMD
KMOT 300120Z 3001/3024 27012G16KT P6SM SKC
     FM300400 26007KT P6SM SKC
     FM300700 25009KT P6SM FEW080 SCT100
     FM301500 28012G17KT P6SM SKC=



000
FTUS43 KBIS 300120 AAA
TAFJMS
TAF AMD
KJMS 300120Z 3001/3024 29011KT P6SM SKC
     FM300300 27006KT P6SM SKC
     FM301500 28012G17KT P6SM SKC=



000
FTUS43 KBIS 300119 AAA
TAFISN
TAF AMD
KISN 300119Z 3001/3024 32011KT P6SM SKC
     FM300400 27004KT P6SM FEW070 SCT090
     FM300800 25004KT P6SM FEW110
     FM301500 29010KT P6SM SKC=



000
FTUS43 KBIS 300119 AAA
TAFBIS
TAF AMD
KBIS 300119Z 3001/3024 30011KT P6SM SKC
     FM300400 27004KT P6SM SKC
     FM301600 28011KT P6SM FEW090=



000
FTUS43 KBIS 292320
TAFMOT
TAF
KMOT 292320Z 3000/3024 27017G24KT P6SM FEW070
     FM300100 28011KT P6SM SKC
     FM300400 26007KT P6SM SKC
     FM300700 25009KT P6SM FEW080 SCT100
     FM301500 28012G17KT P6SM SKC=



000
FTUS43 KBIS 292320
TAFISN
TAF
KISN 292320Z 3000/3024 29017G24KT P6SM FEW070
     FM300100 30011KT P6SM SKC
     FM300400 27004KT P6SM FEW070 SCT090
     FM300800 25004KT P6SM FEW110
     FM301500 29010KT P6SM SKC=



000
FTUS43 KBIS 292320
TAFJMS
TAF
KJMS 292320Z 3000/3024 30018G28KT P6SM FEW070 FEW150
     FM300100 30011KT P6SM SKC
     FM300300 27006KT P6SM SKC
     FM301500 28012G17KT P6SM SKC=



000
FTUS43 KBIS 292320
TAFDIK
TAF
KDIK 292320Z 3000/3024 30014G23KT P6SM FEW080
     FM300100 29007KT P6SM SKC
     FM300600 24006KT P6SM SKC
     FM301500 27011KT P6SM SKC=



000
FTUS43 KBIS 292320
TAFBIS
TAF
KBIS 292320Z 3000/3024 30015G20KT P6SM FEW080
     FM300100 30011KT P6SM SKC
     FM300400 27004KT P6SM SKC
     FM301600 28011KT P6SM FEW090=



000
FTUS43 KBIS 291720
TAFBIS
TAF
KBIS 291720Z 2918/3018 29020G32KT P6SM SCT150
     FM300100 28007KT P6SM SKC=



000
FTUS43 KBIS 291720
TAFISN
TAF
KISN 291720Z 2918/3018 28021G30KT P6SM FEW080
     FM300200 28006KT P6SM SKC=



000
FTUS43 KBIS 291720
TAFMOT
TAF
KMOT 291720Z 2918/3018 27022G35KT P6SM SCT150
     FM300100 27010KT P6SM SKC=



000
FTUS43 KBIS 291720
TAFDIK
TAF
KDIK 291720Z 2918/3018 29025G32KT P6SM FEW060 SCT150
     FM300100 28006KT P6SM SKC=



000
FTUS43 KBIS 291720
TAFJMS
TAF
KJMS 291720Z 2918/3018 29025G37KT P6SM SCT050
     FM300100 30015G23KT P6SM SCT050
     FM300300 28007KT P6SM SKC=



000
FTUS43 KBIS 291720
TAFMOT
TAF
KMOT 291720Z 2918/3018 27022G35KT P6SM SCT150
     FM300100 27010KT P6SM SKC=



000
FTUS43 KBIS 291720
TAFISN
TAF
KISN 291720Z 2918/3018 28021G30KT P6SM FEW080
     FM300200 28006KT P6SM SKC=



000
FTUS43 KBIS 291720
TAFJMS
TAF
KJMS 291720Z 2918/3018 29025G37KT P6SM SCT050
     FM300100 30015G23KT P6SM SCT050
     FM300300 28007KT P6SM SKC=



000
FTUS43 KBIS 291720
TAFDIK
TAF
KDIK 291720Z 2918/3018 29025G32KT P6SM FEW060 SCT150
     FM300100 28006KT P6SM SKC=



000
FTUS43 KBIS 291720
TAFBIS
TAF
KBIS 291720Z 2918/3018 29020G32KT P6SM SCT150
     FM300100 28007KT P6SM SKC=



000
FTUS43 KBIS 291120
TAFJMS
TAF
KJMS 291120Z 2912/3012 27022G32KT P6SM SCT050
     FM291500 29028G38KT P6SM SCT050
     FM300100 27010KT P6SM SCT050
     FM300600 23005KT P6SM SKC=



000
FTUS43 KBIS 291120
TAFISN
TAF
KISN 291120Z 2912/3012 27015KT P6SM SCT050 BKN100
     FM291500 29018G26KT P6SM FEW060
     FM300200 30006KT P6SM SKC
     FM300600 24004KT P6SM SKC=



000
FTUS43 KBIS 291120
TAFDIK
TAF
KDIK 291120Z 2912/3012 27015KT P6SM SKC
     FM291500 29022G34KT P6SM FEW060
     FM292100 30018G25KT P6SM FEW060
     FM300100 28006KT P6SM SKC
     FM300600 24004KT P6SM SKC=



000
FTUS43 KBIS 291120
TAFMOT
TAF
KMOT 291120Z 2912/3012 26020G28KT P6SM SCT070 BKN100
     FM291500 28025G35KT P6SM SCT060
     FM300100 28010KT P6SM SKC
     FM300700 24008KT P6SM SKC=



000
FTUS43 KBIS 291120
TAFMOT
TAF
KMOT 291120Z 2912/3012 26020G28KT P6SM SCT070 BKN100
     FM291500 28025G35KT P6SM SCT060
     FM300100 28010KT P6SM SKC
     FM300700 24008KT P6SM SKC=



000
FTUS43 KBIS 291120
TAFJMS
TAF
KJMS 291120Z 2912/3012 27022G32KT P6SM SCT050
     FM291500 29028G38KT P6SM SCT050
     FM300100 27010KT P6SM SCT050
     FM300600 23005KT P6SM SKC=



000
FTUS43 KBIS 291120
TAFBIS
TAF
KBIS 291120Z 2912/3012 27015KT P6SM SCT060
     FM291500 29025G32KT P6SM SCT060
     FM300100 29010KT P6SM SKC
     FM300600 26006KT P6SM SKC=



000
FTUS43 KBIS 291120
TAFISN
TAF
KISN 291120Z 2912/3012 27015KT P6SM SCT050 BKN100
     FM291500 29018G26KT P6SM FEW060
     FM300200 30006KT P6SM SKC
     FM300600 24004KT P6SM SKC=



000
FTUS43 KBIS 291120
TAFDIK
TAF
KDIK 291120Z 2912/3012 27015KT P6SM SKC
     FM291500 29022G34KT P6SM FEW060
     FM292100 30018G25KT P6SM FEW060
     FM300100 28006KT P6SM SKC
     FM300600 24004KT P6SM SKC=



000
FTUS43 KBIS 291120
TAFBIS
TAF
KBIS 291120Z 2912/3012 27015KT P6SM SCT060
     FM291500 29025G32KT P6SM SCT060
     FM300100 29010KT P6SM SKC
     FM300600 26006KT P6SM SKC=



000
FTUS43 KBIS 290521
TAFJMS
TAF
KJMS 290521Z 2906/3006 27028G38KT P6SM BKN045
     FM291000 27025G35KT P6SM SCT050
     FM291500 29027G38KT P6SM SCT050
     FM300100 27010KT P6SM SCT050=



000
FTUS43 KBIS 290521
TAFDIK
TAF
KDIK 290521Z 2906/3006 26012KT P6SM FEW070
     FM291100 27015KT P6SM SKC
     FM291500 29022G35KT P6SM FEW060
     FM292100 29018G25KT P6SM FEW060
     FM300100 28006KT P6SM SKC=



000
FTUS43 KBIS 290521
TAFBIS
TAF
KBIS 290521Z 2906/3006 28018G28KT P6SM SCT070
     FM291500 29025G32KT P6SM FEW050 SCT200
     FM300100 29012KT P6SM SKC=



000
FTUS43 KBIS 290521
TAFISN
TAF
KISN 290521Z 2906/3006 29015KT P6SM BKN100
     FM291200 27015KT P6SM SCT060
     FM291500 29018G26KT P6SM FEW060
     FM300100 28006KT P6SM SKC=



000
FTUS43 KBIS 290521
TAFJMS
TAF
KJMS 290521Z 2906/3006 27028G38KT P6SM BKN045
     FM291000 27025G35KT P6SM SCT050
     FM291500 29027G38KT P6SM SCT050
     FM300100 27010KT P6SM SCT050=



000
FTUS43 KBIS 290521
TAFDIK
TAF
KDIK 290521Z 2906/3006 26012KT P6SM FEW070
     FM291100 27015KT P6SM SKC
     FM291500 29022G35KT P6SM FEW060
     FM292100 29018G25KT P6SM FEW060
     FM300100 28006KT P6SM SKC=



000
FTUS43 KBIS 290521
TAFMOT
TAF
KMOT 290521Z 2906/3006 27032G42KT P6SM -SHRA OVC035
     FM290900 27022G32KT P6SM BKN070 BKN100
     FM291200 28020G30KT P6SM SCT120
     FM291500 28025G35KT P6SM FEW060
     FM300100 27010KT P6SM SKC=



000
FTUS43 KBIS 290234 AAA
TAFDIK
TAF AMD
KDIK 290234Z 2903/2924 30019G31KT P6SM SCT070
     FM290600 28017G23KT P6SM FEW080 SCT180
     FM291100 27015KT P6SM SKC
     FM291500 29022G32KT P6SM SKC=



000
FTUS43 KBIS 290233 AAB
TAFBIS
TAF AMD
KBIS 290233Z 2903/2924 28027G45KT P6SM SCT060
     FM290400 28023G31KT P6SM FEW070
     FM290600 28017G25KT P6SM FEW090 FEW200
     FM291500 29025G32KT P6SM FEW250=



000
FTUS43 KBIS 290233 AAB
TAFBIS
TAF AMD
KBIS 290233Z 2903/2924 28027G45KT P6SM SCT060
     FM290400 28023G31KT P6SM FEW070
     FM290600 28017G25KT P6SM FEW090 FEW200
     FM291500 29025G32KT P6SM FEW250=



000
FTUS43 KBIS 290232 AAA
TAFMOT
TAF AMD
KMOT 290232Z 2903/2924 26030G45KT 5SM -SHRA SCT025 OVC035
      TEMPO 2903/2905 3SM -SHRA BKN015
     FM290500 27030G39KT P6SM VCSH BKN020 OVC035
     FM290700 27022G32KT P6SM BKN050 OVC070
     FM291200 28018G26KT P6SM SCT120 SCT170
     FM291500 28024G35KT P6SM SKC=



000
FTUS43 KBIS 290232 AAA
TAFISN
TAF AMD
KISN 290232Z 2903/2924 28025G33KT P6SM -SHRA BKN045 OVC080
     FM290600 27015G24KT P6SM SCT120 SCT250
     FM291500 29018G26KT P6SM SKC=



000
FTUS43 KBIS 282339
TAFISN
TAF
KISN 282339Z 2900/2924 28037G52KT P6SM -SHRA BKN035 OVC060
     FM290300 28025G33KT P6SM VCSH BKN045 OVC080
     FM290600 27015G24KT P6SM SCT120 SCT250
     FM291500 29018G26KT P6SM SKC=



000
FTUS43 KBIS 282339
TAFMOT
TAF
KMOT 282339Z 2900/2924 24033G50KT P6SM -SHRA SCT025 OVC035
      TEMPO 2900/2904 25030G50KT 3SM -SHRA SCT012 BKN020
     FM290400 27032G43KT P6SM VCSH BKN020 OVC035
     FM290700 27022G32KT P6SM BKN050 OVC070
     FM291200 28018G26KT P6SM SCT120 SCT170
     FM291500 28024G35KT P6SM SKC=



000
FTUS43 KBIS 282339
TAFDIK
TAF
KDIK 282339Z 2900/2924 28038G52KT P6SM BKN045 BKN060
     FM290300 29025G34KT P6SM BKN070
     FM290600 27017G23KT P6SM FEW080 SCT180
     FM291100 27015KT P6SM SKC
     FM291500 29022G32KT P6SM SKC=



000
FTUS43 KBIS 282339
TAFJMS
TAF
KJMS 282339Z 2900/2924 26025G41KT P6SM SCT070
     FM290400 27023G33KT P6SM BKN060
     FM291000 27022G29KT P6SM SCT060
     FM291500 29027G38KT P6SM SKC=



000
FTUS43 KBIS 282339
TAFBIS
TAF
KBIS 282339Z 2900/2924 27033G47KT P6SM BKN060
     FM290400 28024G31KT P6SM BKN060
     FM290600 27017G25KT P6SM FEW090 SCT200
     FM291500 29025G32KT P6SM FEW250=



000
FTUS43 KBIS 281726
TAFDIK
TAF
KDIK 281726Z 2818/2918 26035G46KT P6SM BKN035
     FM282000 26035G50KT P6SM BKN035
     FM290200 29020G30KT P6SM SCT050
     FM290800 27018KT P6SM FEW070
     FM291500 29025G34KT P6SM SCT100=



000
FTUS43 KBIS 281726
TAFBIS
TAF
KBIS 281726Z 2818/2918 25025G40KT P6SM BKN045
     FM282000 26032G45KT P6SM BKN050
     FM290200 28020KT P6SM BKN060
     FM291600 29025G34KT P6SM SCT100=



000
FTUS43 KBIS 281726
TAFISN
TAF
KISN 281726Z 2818/2918 24025G38KT 4SM -RA BR BKN025 OVC035
     FM282200 28035G50KT P6SM -SHRA OVC025
     FM290300 28020G30KT P6SM VCSH BKN035 OVC050
     FM290600 28015G25KT P6SM SCT070=



000
FTUS43 KBIS 281726
TAFMOT
TAF
KMOT 281726Z 2818/2918 20018G29KT P6SM OVC030
     FM282100 24032G50KT P6SM VCSH SCT025 OVC035
     FM290000 25032G48KT P6SM -SHRA OVC035
     FM290600 27030KT P6SM BKN070
     FM291200 28015G24KT P6SM SCT070=



000
FTUS43 KBIS 281726
TAFJMS
TAF
KJMS 281726Z 2818/2918 25021G26KT P6SM SKC
     FM282100 25025G40KT P6SM SCT060
     FM290200 26020G33KT P6SM BKN060=



000
FTUS43 KBIS 281443 AAA
TAFMOT
TAF AMD
KMOT 281443Z 2815/2912 22025G33KT P6SM VCSH FEW026 BKN030
     FM281600 22025G38KT P6SM BKN030
     FM282100 24032G50KT P6SM VCSH SCT025 OVC035
     FM290000 25032G48KT P6SM -SHRA OVC035
     FM290600 27030KT P6SM BKN070=



000
FTUS43 KBIS 281443 AAA
TAFMOT
TAF AMD
KMOT 281443Z 2815/2912 22025G33KT P6SM VCSH FEW026 BKN030
     FM281600 22025G38KT P6SM BKN030
     FM282100 24032G50KT P6SM VCSH SCT025 OVC035
     FM290000 25032G48KT P6SM -SHRA OVC035
     FM290600 27030KT P6SM BKN070=



000
FTUS43 KBIS 281442 AAA
TAFISN
TAF AMD
KISN 281442Z 2815/2912 22016G26KT P6SM -RA BKN009 OVC014
     FM281600 24020G35KT P6SM -SHRA OVC015
     FM281800 28035G50KT P6SM -SHRA OVC025
     FM290300 28020G30KT P6SM VCSH BKN035 OVC050
     FM290600 28015KT P6SM SCT070=



000
FTUS43 KBIS 281442 AAA
TAFISN
TAF AMD
KISN 281442Z 2815/2912 22016G26KT P6SM -RA BKN009 OVC014
     FM281600 24020G35KT P6SM -SHRA OVC015
     FM281800 28035G50KT P6SM -SHRA OVC025
     FM290300 28020G30KT P6SM VCSH BKN035 OVC050
     FM290600 28015KT P6SM SCT070=



000
FTUS43 KBIS 281339 AAA
TAFBIS
TAF AMD
KBIS 281339Z 2814/2912 26021G29KT P6SM SCT025
     FM281500 26020G30KT P6SM SCT035
     FM281800 26030G45KT P6SM SCT050
     FM290200 28020KT P6SM BKN060=



000
FTUS43 KBIS 281339 AAA
TAFBIS
TAF AMD
KBIS 281339Z 2814/2912 26021G29KT P6SM SCT025
     FM281500 26020G30KT P6SM SCT035
     FM281800 26030G45KT P6SM SCT050
     FM290200 28020KT P6SM BKN060=



000
FTUS43 KBIS 281120
TAFISN
TAF
KISN 281120Z 2812/2912 24024G35KT P6SM -SHRA OVC015
     FM281800 28035G50KT P6SM -SHRA OVC025
     FM290300 28020G30KT P6SM VCSH BKN035 OVC050
     FM290600 28015KT P6SM SCT070=



000
FTUS43 KBIS 281120
TAFBIS
TAF
KBIS 281120Z 2812/2912 27017G28KT P6SM BKN020
     FM281500 26020G30KT P6SM SCT035
     FM281800 26030G45KT P6SM SCT050
     FM290200 28020KT P6SM BKN060=



000
FTUS43 KBIS 281120
TAFJMS
TAF
KJMS 281120Z 2812/2912 24012KT P6SM SCT012
     FM281500 26015G25KT P6SM SCT050
     FM282100 25025G40KT P6SM SCT060
     FM290200 26020G30KT P6SM BKN060=



000
FTUS43 KBIS 281120
TAFMOT
TAF
KMOT 281120Z 2812/2912 23018G25KT P6SM OVC015
     FM281600 22025G38KT P6SM BKN030
     FM282100 24032G50KT P6SM VCSH SCT025 OVC035
     FM290000 25032G48KT P6SM -SHRA OVC035
     FM290600 27030KT P6SM BKN070=



000
FTUS43 KBIS 281120
TAFDIK
TAF
KDIK 281120Z 2812/2912 27025G35KT P6SM SCT015 OVC020
     FM281500 27030G45KT P6SM BKN035
     FM281700 26035G50KT P6SM BKN050
     FM290200 29020G30KT P6SM SCT050
     FM290800 27018KT P6SM FEW070=



000
FTUS43 KBIS 281029 AAB
TAFBIS
TAF AMD
KBIS 281029Z 2810/2906 28012KT P6SM SCT080
     FM281100 27017G28KT P6SM BKN018
     FM281700 26030G45KT P6SM SCT050
     FM290200 28020KT P6SM BKN060=



000
FTUS43 KBIS 280956 AAA
TAFJMS
TAF AMD
KJMS 280956Z 2810/2906 14012KT P6SM SCT045
     FM281500 26015G25KT P6SM SCT050
     FM282100 25025G40KT P6SM SCT060
     FM290200 26020G30KT P6SM BKN060=



000
FTUS43 KBIS 280952 AAB
TAFDIK
TAF AMD
KDIK 280952Z 2810/2906 27020G30KT P6SM VCSH OVC020
     FM281200 27025G35KT P6SM SCT025
     FM281500 27030G45KT P6SM BKN040
     FM281700 26035G52KT P6SM BKN050
     FM290200 29020G30KT P6SM SCT050=



000
FTUS43 KBIS 280951 AAA
TAFMOT
TAF AMD
KMOT 280951Z 2810/2906 20012KT P6SM BKN015
     FM281100 23018G25KT P6SM BKN015
     FM281600 22025G38KT P6SM SCT030
     FM282100 24032G50KT P6SM VCSH SCT025 OVC035
     FM290000 25030G48KT P6SM OVC025=



000
FTUS43 KBIS 280948 AAA
TAFISN
TAF AMD
KISN 280948Z 2810/2906 24025G35KT P6SM OVC012
     FM281500 24020G35KT P6SM -SHRA OVC025
     FM281800 28035G50KT P6SM -SHRA OVC025
     FM290200 28020G30KT P6SM VCSH BKN050 OVC080=



000
FTUS43 KBIS 280641 AAB
TAFBIS
TAF AMD
KBIS 280641Z 2807/2906 28012KT P6SM VCSH SCT080
     FM281100 27017G28KT P6SM SCT035 BKN050
     FM281700 26030G45KT P6SM SCT050
     FM290200 28020KT P6SM BKN060=



000
FTUS43 KBIS 280540 AAA
TAFDIK
TAF AMD
KDIK 280540Z 2806/2906 27020G30KT P6SM VCSH BKN035
      TEMPO 2806/2808 3SM SHRA OVC025
     FM281200 27025G35KT P6SM SCT025
     FM281500 27030G45KT P6SM BKN040
     FM281700 26035G52KT P6SM BKN050
     FM290200 29020G30KT P6SM SCT050=



000
FTUS43 KBIS 280525
TAFJMS
TAF
KJMS 280525Z 2806/2906 VRB35G45KT 3SM TSRA OVC040CB
     FM280900 14015G25KT 5SM -SHRA OVC035
     FM281500 26015G25KT P6SM SCT050
     FM282100 25025G40KT P6SM SCT060
     FM290200 26020G30KT P6SM BKN060=



000
FTUS43 KBIS 280525
TAFMOT
TAF
KMOT 280525Z 2806/2906 13015KT P6SM VCTS BKN080CB
      TEMPO 2806/2810 VRB20G30KT 5SM -TSRA BKN050CB
     FM281100 22018G25KT P6SM VCSH BKN035
     FM281600 22025G38KT P6SM SCT030
     FM282100 24032G50KT P6SM VCSH SCT025 OVC035
     FM290000 25030G48KT P6SM OVC025=



000
FTUS43 KBIS 280525
TAFDIK
TAF
KDIK 280525Z 2806/2906 27020G30KT P6SM VCSH BKN035
     FM281200 27025G35KT P6SM SCT025
     FM281500 27030G45KT P6SM BKN040
     FM281700 26035G52KT P6SM BKN050
     FM290200 29020G30KT P6SM SCT050=



000
FTUS43 KBIS 280525
TAFISN
TAF
KISN 280525Z 2806/2906 20015G25KT P6SM VCTS BKN080CB
     FM280800 24018G28KT P6SM BKN025 BKN080
     FM281500 24020G35KT P6SM -SHRA OVC025
     FM281800 28035G50KT P6SM -SHRA OVC025
     FM290200 28020G30KT P6SM VCSH BKN050 OVC080=



000
FTUS43 KBIS 280525
TAFBIS
TAF
KBIS 280525Z 2806/2906 24015G25KT P6SM VCSH OVC050
     FM281100 27017G28KT P6SM SCT035 BKN050
     FM281700 26030G45KT P6SM SCT050
     FM290200 28020KT P6SM BKN060=



000
FTUS43 KBIS 280504 AAB
TAFISN
TAF AMD
KISN 280504Z 2805/2824 19015G25KT 6SM -TSRA SCT015 OVC040CB
     FM280600 31015KT P6SM -SHRA VCTS BKN035CB
     FM280700 24015KT P6SM SCT035 SCT080
     FM281400 23020G35KT P6SM BKN050
     FM281800 28033G45KT P6SM -SHRA OVC025=



000
FTUS43 KBIS 280504 AAB
TAFISN
TAF AMD
KISN 280504Z 2805/2824 19015G25KT 6SM -TSRA SCT015 OVC040CB
     FM280600 31015KT P6SM -SHRA VCTS BKN035CB
     FM280700 24015KT P6SM SCT035 SCT080
     FM281400 23020G35KT P6SM BKN050
     FM281800 28033G45KT P6SM -SHRA OVC025=



000
FTUS43 KBIS 280501 AAA
TAFJMS
TAF AMD
KJMS 280501Z 2805/2824 14018KT P6SM SCT040
     FM280600 VRB35G45KT 3SM TSRA OVC040CB
     FM280900 14015G25KT 5SM -SHRA OVC050
     FM281300 26018G27KT P6SM SCT100
     FM281900 28025G40KT P6SM SCT100=



000
FTUS43 KBIS 280334 AAC
TAFBIS
TAF AMD
KBIS 280334Z 2804/2824 VRB25G50KT 3SM +TSRA OVC040CB
     FM280600 30015KT 5SM SHRA VCTS OVC050CB
     FM280800 22014G22KT P6SM SCT100
     FM281700 26030G45KT P6SM BKN050=



000
FTUS43 KBIS 280323 AAB
TAFBIS
TAF AMD
KBIS 280323Z 2803/2824 16013KT P6SM SCT040 BKN150
     FM280400 VRB20G35KT 3SM TSRA OVC040CB
     FM280600 30015KT 5SM SHRA VCTS OVC050CB
     FM280800 22014G22KT P6SM SCT100
     FM281700 26030G45KT P6SM BKN050=



000
FTUS43 KBIS 280202 AAA
TAFISN
TAF AMD
KISN 280202Z 2802/2824 11015KT P6SM VCTS OVC070CB
      TEMPO 2802/2804 VRB20G30KT 4SM -TSRA BKN050CB
     FM280500 31015KT P6SM -SHRA VCTS BKN080CB
     FM280700 24015KT P6SM SCT035 SCT080
     FM281400 23020G35KT P6SM BKN050
     FM281800 28033G45KT P6SM -SHRA OVC025=



000
FTUS43 KBIS 280138 AAA
TAFDIK
TAF AMD
KDIK 280138Z 2802/2824 15016KT P6SM VCTS BKN100CB
      TEMPO 2802/2804 VRB25G40KT 2SM TSRA BKN025CB
     FM280500 27018G30KT P6SM VCSH BKN035
     FM281500 26035G48KT P6SM BKN050=



000
FTUS43 KBIS 280130 AAA
TAFMOT
TAF AMD
KMOT 280130Z 2802/2824 13012KT P6SM SCT050
     FM280400 11020KT P6SM VCTS BKN080CB
      TEMPO 2804/2807 VRB20G30KT 5SM -TSRA BKN050CB
     FM280700 25018G25KT P6SM VCSH BKN035
     FM281600 23025G40KT P6SM SCT100=



000
FTUS43 KBIS 280129 AAA
TAFBIS
TAF AMD
KBIS 280129Z 2801/2824 16013KT P6SM SCT150
     FM280400 15015KT P6SM VCTS BKN050CB
      TEMPO 2804/2806 VRB20G35KT 3SM TSRA OVC040CB
     FM280600 30015KT 5SM SHRA VCTS OVC050CB
     FM280800 22014G22KT P6SM SCT100
     FM281700 26030G45KT P6SM BKN050=



000
FTUS43 KBIS 272327
TAFBIS
TAF
KBIS 272327Z 2800/2824 16019G28KT P6SM SCT150
     FM280200 15015KT P6SM VCTS BKN050CB
     FM280300 VRB20G35KT 3SM TSRA OVC040CB
     FM280430 30015KT 5SM SHRA VCTS OVC050CB
     FM280800 22014G22KT P6SM SCT100
     FM281700 26030G45KT P6SM BKN050=



000
FTUS43 KBIS 272327
TAFJMS
TAF
KJMS 272327Z 2800/2824 13018KT P6SM SCT040
     FM280600 16015G25KT P6SM VCTS BKN080CB
     FM280900 14015G25KT 5SM SHRA VCTS OVC050CB
     FM281300 26018G27KT P6SM SCT100
     FM281900 28025G40KT P6SM SCT100=



000
FTUS43 KBIS 272327
TAFMOT
TAF
KMOT 272327Z 2800/2824 13015G24KT P6SM SCT050
     FM280200 11020KT P6SM VCTS BKN080CB
     FM280500 13014KT 5SM SHRA VCTS BKN040CB
     FM280900 22018G25KT P6SM VCSH BKN035
     FM281600 23025G40KT P6SM SCT100=



000
FTUS43 KBIS 272327
TAFDIK
TAF
KDIK 272327Z 2800/2824 15016G24KT P6SM SCT100 BKN200
     FM280130 15016KT P6SM -SHRA VCTS BKN100CB
      TEMPO 2802/2804 VRB25G40KT 2SM TSRA BKN025CB
     FM280600 27018G30KT P6SM VCSH BKN035
     FM281500 26035G48KT P6SM BKN050=



000
FTUS43 KBIS 272327
TAFISN
TAF
KISN 272327Z 2800/2824 11015KT P6SM FEW070
     FM280100 12012KT P6SM SHRA VCTS OVC040CB
     FM280200 11015KT 5SM TSRA OVC050CB
     FM280500 31015KT P6SM -SHRA VCTS BKN080CB
     FM280700 24015KT P6SM SCT035 SCT080
     FM281400 23020G35KT P6SM BKN050
     FM281800 28033G45KT P6SM -SHRA OVC025=



000
FTUS43 KBIS 272327
TAFBIS
TAF
KBIS 272327Z 2800/2824 16019G28KT P6SM SCT150
     FM280200 15015KT P6SM VCTS BKN050CB
     FM280300 VRB20G35KT 3SM TSRA OVC040CB
     FM280430 30015KT 5SM SHRA VCTS OVC050CB
     FM280800 22014G22KT P6SM SCT100
     FM281700 26030G45KT P6SM BKN050=



000
FTUS43 KBIS 272327
TAFJMS
TAF
KJMS 272327Z 2800/2824 13018KT P6SM SCT040
     FM280600 16015G25KT P6SM VCTS BKN080CB
     FM280900 14015G25KT 5SM SHRA VCTS OVC050CB
     FM281300 26018G27KT P6SM SCT100
     FM281900 28025G40KT P6SM SCT100=



000
FTUS43 KBIS 272327
TAFMOT
TAF
KMOT 272327Z 2800/2824 13015G24KT P6SM SCT050
     FM280200 11020KT P6SM VCTS BKN080CB
     FM280500 13014KT 5SM SHRA VCTS BKN040CB
     FM280900 22018G25KT P6SM VCSH BKN035
     FM281600 23025G40KT P6SM SCT100=



000
FTUS43 KBIS 272327
TAFDIK
TAF
KDIK 272327Z 2800/2824 15016G24KT P6SM SCT100 BKN200
     FM280130 15016KT P6SM -SHRA VCTS BKN100CB
      TEMPO 2802/2804 VRB25G40KT 2SM TSRA BKN025CB
     FM280600 27018G30KT P6SM VCSH BKN035
     FM281500 26035G48KT P6SM BKN050=



000
FTUS43 KBIS 272327
TAFISN
TAF
KISN 272327Z 2800/2824 11015KT P6SM FEW070
     FM280100 12012KT P6SM SHRA VCTS OVC040CB
     FM280200 11015KT 5SM TSRA OVC050CB
     FM280500 31015KT P6SM -SHRA VCTS BKN080CB
     FM280700 24015KT P6SM SCT035 SCT080
     FM281400 23020G35KT P6SM BKN050
     FM281800 28033G45KT P6SM -SHRA OVC025=



000
FTUS43 KBIS 271734
TAFBIS
TAF
KBIS 271734Z 2718/2818 15013G24KT P6SM FEW100
     FM280100 15015G25KT P6SM VCTS BKN050CB
     FM280300 15015KT P6SM VCTS OVC040CB
     FM280800 22015G25KT P6SM BKN250
     FM281400 26028G40KT P6SM SCT100=



000
FTUS43 KBIS 271734
TAFJMS
TAF
KJMS 271734Z 2718/2818 15015G22KT P6SM FEW070
     FM272300 15018G28KT P6SM BKN050
     FM280600 16015G25KT P6SM VCTS BKN080CB
     FM280900 14015G25KT 5SM SHRA VCTS OVC050CB
     FM281300 26018G27KT P6SM SCT100=



000
FTUS43 KBIS 271734
TAFISN
TAF
KISN 271734Z 2718/2818 12015KT P6SM SCT100
     FM272200 10010KT P6SM VCTS BKN050CB OVC080
     FM280200 12012KT P6SM SHRA VCTS OVC040CB
     FM280700 25015G25KT P6SM -SHRA OVC025
     FM281500 24025G40KT P6SM SCT100=



000
FTUS43 KBIS 271734
TAFDIK
TAF
KDIK 271734Z 2718/2818 11014G23KT P6SM SCT100
     FM272200 15018G25KT P6SM VCTS BKN050CB BKN150
     FM280000 15018G28KT 5SM SHRA VCTS OVC050CB
     FM280600 27018G30KT P6SM VCSH BKN035
     FM281500 26035G48KT P6SM BKN050=



000
FTUS43 KBIS 271734
TAFMOT
TAF
KMOT 271734Z 2718/2818 11014G24KT P6SM SCT100
     FM280200 11020KT P6SM VCTS BKN080CB
     FM280500 13014KT 5SM SHRA VCTS BKN040CB
     FM280900 22018G25KT P6SM VCSH BKN035
     FM281600 23025G40KT P6SM SCT100=



000
FTUS43 KBIS 271734
TAFMOT
TAF
KMOT 271734Z 2718/2818 11014G24KT P6SM SCT100
     FM280200 11020KT P6SM VCTS BKN080CB
     FM280500 13014KT 5SM SHRA VCTS BKN040CB
     FM280900 22018G25KT P6SM VCSH BKN035
     FM281600 23025G40KT P6SM SCT100=



000
FTUS43 KBIS 271734
TAFISN
TAF
KISN 271734Z 2718/2818 12015KT P6SM SCT100
     FM272200 10010KT P6SM VCTS BKN050CB OVC080
     FM280200 12012KT P6SM SHRA VCTS OVC040CB
     FM280700 25015G25KT P6SM -SHRA OVC025
     FM281500 24025G40KT P6SM SCT100=



000
FTUS43 KBIS 271734
TAFDIK
TAF
KDIK 271734Z 2718/2818 11014G23KT P6SM SCT100
     FM272200 15018G25KT P6SM VCTS BKN050CB BKN150
     FM280000 15018G28KT 5SM SHRA VCTS OVC050CB
     FM280600 27018G30KT P6SM VCSH BKN035
     FM281500 26035G48KT P6SM BKN050=



000
FTUS43 KBIS 271734
TAFBIS
TAF
KBIS 271734Z 2718/2818 15013G24KT P6SM FEW100
     FM280100 15015G25KT P6SM VCTS BKN050CB
     FM280300 15015KT P6SM VCTS OVC040CB
     FM280800 22015G25KT P6SM BKN250
     FM281400 26028G40KT P6SM SCT100=



000
FTUS43 KBIS 271734
TAFJMS
TAF
KJMS 271734Z 2718/2818 15015G22KT P6SM FEW070
     FM272300 15018G28KT P6SM BKN050
     FM280600 16015G25KT P6SM VCTS BKN080CB
     FM280900 14015G25KT 5SM SHRA VCTS OVC050CB
     FM281300 26018G27KT P6SM SCT100=



000
FTUS43 KBIS 271330 AAA
TAFBIS
TAF AMD
KBIS 271330Z 2714/2812 10007KT P6SM BKN150
     FM271600 14015G25KT P6SM SCT150
     FM272100 16018G30KT P6SM SCT050
     FM280300 14015G25KT P6SM VCTS BKN050CB
     FM280700 27015G25KT P6SM VCTS BKN050CB=



000
FTUS43 KBIS 271330 AAA
TAFBIS
TAF AMD
KBIS 271330Z 2714/2812 10007KT P6SM BKN150
     FM271600 14015G25KT P6SM SCT150
     FM272100 16018G30KT P6SM SCT050
     FM280300 14015G25KT P6SM VCTS BKN050CB
     FM280700 27015G25KT P6SM VCTS BKN050CB=



000
FTUS43 KBIS 271120
TAFBIS
TAF
KBIS 271120Z 2712/2812 14012KT P6SM SCT050 BKN150
     FM271600 14015G25KT P6SM SCT150
     FM272100 16018G30KT P6SM SCT050
     FM280300 14015G25KT P6SM VCTS BKN050CB
     FM280700 27015G25KT P6SM VCTS BKN050CB=



000
FTUS43 KBIS 271120
TAFMOT
TAF
KMOT 271120Z 2712/2812 10007KT P6SM SCT080 BKN150
     FM271500 12012KT P6SM VCTS SCT050CB BKN150
     FM271900 14018G28KT P6SM BKN050
     FM280200 11020KT P6SM TSRA OVC050CB
     FM280900 22018G25KT P6SM VCSH BKN035=



000
FTUS43 KBIS 271120
TAFDIK
TAF
KDIK 271120Z 2712/2812 15012KT P6SM VCTS SCT030CB BKN120
     FM271500 15015G25KT P6SM SCT035 SCT150
     FM272200 15018G25KT P6SM VCTS BKN050CB BKN150
     FM280000 15018G28KT 6SM TSRA OVC050CB
     FM280600 27018G30KT P6SM VCSH BKN035=



000
FTUS43 KBIS 271120
TAFMOT
TAF
KMOT 271120Z 2712/2812 10007KT P6SM SCT080 BKN150
     FM271500 12012KT P6SM VCTS SCT050CB BKN150
     FM271900 14018G28KT P6SM BKN050
     FM280200 11020KT P6SM TSRA OVC050CB
     FM280900 22018G25KT P6SM VCSH BKN035=



000
FTUS43 KBIS 271120
TAFISN
TAF
KISN 271120Z 2712/2812 06008KT P6SM VCTS BKN040CB
     FM271800 09007KT P6SM SCT050
     FM272200 10010KT P6SM VCTS BKN050CB OVC080
     FM280000 12012KT P6SM TSRA OVC050CB
     FM280600 25015G25KT P6SM TSRA OVC025CB=



000
FTUS43 KBIS 271120
TAFJMS
TAF
KJMS 271120Z 2712/2812 14008KT P6SM SCT035
     FM271600 15015G25KT P6SM SCT100
     FM280200 15018G28KT P6SM BKN050
     FM280600 16015G25KT P6SM VCTS BKN080CB=



000
FTUS43 KBIS 271120
TAFBIS
TAF
KBIS 271120Z 2712/2812 14012KT P6SM SCT050 BKN150
     FM271600 14015G25KT P6SM SCT150
     FM272100 16018G30KT P6SM SCT050
     FM280300 14015G25KT P6SM VCTS BKN050CB
     FM280700 27015G25KT P6SM VCTS BKN050CB=



000
FTUS43 KBIS 271120
TAFISN
TAF
KISN 271120Z 2712/2812 06008KT P6SM VCTS BKN040CB
     FM271800 09007KT P6SM SCT050
     FM272200 10010KT P6SM VCTS BKN050CB OVC080
     FM280000 12012KT P6SM TSRA OVC050CB
     FM280600 25015G25KT P6SM TSRA OVC025CB=



000
FTUS43 KBIS 271120
TAFDIK
TAF
KDIK 271120Z 2712/2812 15012KT P6SM VCTS SCT030CB BKN120
     FM271500 15015G25KT P6SM SCT035 SCT150
     FM272200 15018G25KT P6SM VCTS BKN050CB BKN150
     FM280000 15018G28KT 6SM TSRA OVC050CB
     FM280600 27018G30KT P6SM VCSH BKN035=



000
FTUS43 KBIS 271120
TAFJMS
TAF
KJMS 271120Z 2712/2812 14008KT P6SM SCT035
     FM271600 15015G25KT P6SM SCT100
     FM280200 15018G28KT P6SM BKN050
     FM280600 16015G25KT P6SM VCTS BKN080CB=



    US Dept of Commerce
    National Oceanic and Atmospheric Administration
    National Weather Service
    1325 East West Highway
    Silver Spring, MD 20910
    Page Author: NWS Internet Services Team
Disclaimer
Information Quality
Credits
Glossary
Privacy Policy
Freedom of Information Act (FOIA)
About Us
Career Opportunities